sensor_id;sensor_type;location;lat;lon;timestamp;temperature;humidity
9901;DHT22;4989;48.772;9.154;2023-10-19T00:00:39;12.70;99.90
9901;DHT22;4989;48.772;9.154;2023-10-19T00:05:46;12.70;99.90
9901;DHT22;4989;48.772;9.154;2023-10-19T00:10:52;12.80;99.90
9901;DHT22;4989;48.772;9.154;2023-10-19T00:16:10;12.70;99.90
9901;DHT22;4989;48.772;9.154;2023-10-19T00:21:19;12.90;99.90
9901;DHT22;4989;48.772;9.154;2023-10-19T00:26:30;13.00;99.90
9901;DHT22;4989;48.772;9.154;2023-10-19T00:31:33;13.30;99.90
9901;DHT22;4989;48.772;9.154;2023-10-19T00:36:41;13.60;99.90
9901;DHT22;4989;48.772;9.154;2023-10-19T00:41:45;13.30;99.90
9901;DHT22;4989;48.772;9.154;2023-10-19T00:46:47;13.30;99.90
9901;DHT22;4989;48.772;9.154;2023-10-19T00:51:58;13.40;99.90
9901;DHT22;4989;48.772;9.154;2023-10-19T00:57:21;13.40;99.90
9901;DHT22;4989;48.772;9.154;2023-10-19T01:02:36;13.50;99.90
9901;DHT22;4989;48.772;9.154;2023-10-19T01:07:46;13.70;99.90
9901;DHT22;4989;48.772;9.154;2023-10-19T01:12:48;13.90;99.90
9901;DHT22;4989;48.772;9.154;2023-10-19T01:17:56;14.00;99.90
9901;DHT22;4989;48.772;9.154;2023-10-19T01:23:05;14.20;99.90
9901;DHT22;4989;48.772;9.154;2023-10-19T01:28:10;13.90;99.90
9901;DHT22;4989;48.772;9.154;2023-10-19T01:33:15;13.80;99.90
9901;DHT22;4989;48.772;9.154;2023-10-19T01:38:17;13.80;99.90
9901;DHT22;4989;48.772;9.154;2023-10-19T01:43:20;13.70;99.90
9901;DHT22;4989;48.772;9.154;2023-10-19T01:48:34;13.70;99.90
9901;DHT22;4989;48.772;9.154;2023-10-19T01:53:38;13.70;99.90
9901;DHT22;4989;48.772;9.154;2023-10-19T01:58:44;13.70;99.90
9901;DHT22;4989;48.772;9.154;2023-10-19T02:03:52;13.80;99.90
9901;DHT22;4989;48.772;9.154;2023-10-19T02:09:02;13.90;99.90
9901;DHT22;4989;48.772;9.154;2023-10-19T02:14:20;14.00;99.90
9901;DHT22;4989;48.772;9.154;2023-10-19T02:19:24;14.10;99.90
9901;DHT22;4989;48.772;9.154;2023-10-19T02:24:28;14.20;99.90
9901;DHT22;4989;48.772;9.154;2023-10-19T02:29:30;14.20;99.90
9901;DHT22;4989;48.772;9.154;2023-10-19T02:34:33;14.20;99.90
9901;DHT22;4989;48.772;9.154;2023-10-19T02:39:38;14.20;99.90
9901;DHT22;4989;48.772;9.154;2023-10-19T02:44:43;14.00;99.90
9901;DHT22;4989;48.772;9.154;2023-10-19T02:49:46;13.90;99.90
9901;DHT22;4989;48.772;9.154;2023-10-19T02:54:54;13.80;99.90
9901;DHT22;4989;48.772;9.154;2023-10-19T02:59:59;13.80;99.90
9901;DHT22;4989;48.772;9.154;2023-10-19T03:05:02;13.80;99.90
9901;DHT22;4989;48.772;9.154;2023-10-19T03:10:14;14.00;99.90
9901;DHT22;4989;48.772;9.154;2023-10-19T03:15:27;14.10;99.90
9901;DHT22;4989;48.772;9.154;2023-10-19T03:20:32;14.00;99.90
9901;DHT22;4989;48.772;9.154;2023-10-19T03:25:35;14.00;99.90
9901;DHT22;4989;48.772;9.154;2023-10-19T03:31:07;14.00;99.90
9901;DHT22;4989;48.772;9.154;2023-10-19T03:36:10;14.00;99.90
9901;DHT22;4989;48.772;9.154;2023-10-19T03:41:15;13.90;99.90
9901;DHT22;4989;48.772;9.154;2023-10-19T03:46:18;13.80;99.90
9901;DHT22;4989;48.772;9.154;2023-10-19T03:51:30;13.80;99.90
9901;DHT22;4989;48.772;9.154;2023-10-19T03:56:55;13.80;99.90
9901;DHT22;4989;48.772;9.154;2023-10-19T04:01:59;13.80;99.90
9901;DHT22;4989;48.772;9.154;2023-10-19T04:07:02;13.90;99.90
9901;DHT22;4989;48.772;9.154;2023-10-19T04:12:12;13.90;99.90
9901;DHT22;4989;48.772;9.154;2023-10-19T04:17:14;13.90;99.90
9901;DHT22;4989;48.772;9.154;2023-10-19T04:22:18;14.00;99.90
9901;DHT22;4989;48.772;9.154;2023-10-19T04:27:24;14.00;99.90
9901;DHT22;4989;48.772;9.154;2023-10-19T04:32:28;14.10;99.90
9901;DHT22;4989;48.772;9.154;2023-10-19T04:37:30;14.00;99.90
9901;DHT22;4989;48.772;9.154;2023-10-19T04:42:32;14.10;99.90
9901;DHT22;4989;48.772;9.154;2023-10-19T04:47:35;14.10;99.90
9901;DHT22;4989;48.772;9.154;2023-10-19T04:52:40;14.10;99.90
9901;DHT22;4989;48.772;9.154;2023-10-19T04:57:42;14.10;99.90
9901;DHT22;4989;48.772;9.154;2023-10-19T05:02:45;14.10;99.90
9901;DHT22;4989;48.772;9.154;2023-10-19T05:07:47;14.10;99.90
9901;DHT22;4989;48.772;9.154;2023-10-19T05:12:49;13.90;99.90
9901;DHT22;4989;48.772;9.154;2023-10-19T05:17:51;13.90;99.90
9901;DHT22;4989;48.772;9.154;2023-10-19T05:22:55;13.90;99.90
9901;DHT22;4989;48.772;9.154;2023-10-19T05:27:57;13.90;99.90
9901;DHT22;4989;48.772;9.154;2023-10-19T05:33:00;14.00;99.90
9901;DHT22;4989;48.772;9.154;2023-10-19T05:38:03;13.90;99.90
9901;DHT22;4989;48.772;9.154;2023-10-19T05:43:05;13.80;99.90
9901;DHT22;4989;48.772;9.154;2023-10-19T05:48:10;14.00;99.90
9901;DHT22;4989;48.772;9.154;2023-10-19T05:53:13;14.10;99.90
9901;DHT22;4989;48.772;9.154;2023-10-19T05:58:20;14.20;99.90
9901;DHT22;4989;48.772;9.154;2023-10-19T06:03:22;14.40;99.90
9901;DHT22;4989;48.772;9.154;2023-10-19T06:08:25;14.30;99.90
9901;DHT22;4989;48.772;9.154;2023-10-19T06:13:27;14.60;99.90
9901;DHT22;4989;48.772;9.154;2023-10-19T06:18:29;15.10;99.90
9901;DHT22;4989;48.772;9.154;2023-10-19T06:23:31;15.50;99.90
9901;DHT22;4989;48.772;9.154;2023-10-19T06:28:34;15.60;99.90
9901;DHT22;4989;48.772;9.154;2023-10-19T06:33:40;15.50;99.90
9901;DHT22;4989;48.772;9.154;2023-10-19T06:38:43;15.00;99.90
9901;DHT22;4989;48.772;9.154;2023-10-19T06:43:46;14.60;99.90
9901;DHT22;4989;48.772;9.154;2023-10-19T06:48:48;14.50;99.90
9901;DHT22;4989;48.772;9.154;2023-10-19T06:53:53;14.70;99.90
9901;DHT22;4989;48.772;9.154;2023-10-19T06:58:55;14.50;99.90
9901;DHT22;4989;48.772;9.154;2023-10-19T07:03:57;14.50;99.90
9901;DHT22;4989;48.772;9.154;2023-10-19T07:09:00;14.70;99.90
9901;DHT22;4989;48.772;9.154;2023-10-19T07:14:05;14.80;99.90
9901;DHT22;4989;48.772;9.154;2023-10-19T07:19:09;15.00;99.90
9901;DHT22;4989;48.772;9.154;2023-10-19T07:24:12;14.80;99.90
9901;DHT22;4989;48.772;9.154;2023-10-19T07:29:14;14.40;99.90
9901;DHT22;4989;48.772;9.154;2023-10-19T07:34:17;14.40;99.90
9901;DHT22;4989;48.772;9.154;2023-10-19T07:39:19;14.50;99.90
9901;DHT22;4989;48.772;9.154;2023-10-19T07:44:22;14.90;99.90
9901;DHT22;4989;48.772;9.154;2023-10-19T07:49:24;15.20;99.90
9901;DHT22;4989;48.772;9.154;2023-10-19T07:54:27;15.40;99.90
9901;DHT22;4989;48.772;9.154;2023-10-19T07:59:30;15.40;99.90
9901;DHT22;4989;48.772;9.154;2023-10-19T08:04:33;15.20;99.90
9901;DHT22;4989;48.772;9.154;2023-10-19T08:09:35;15.00;99.90
9901;DHT22;4989;48.772;9.154;2023-10-19T08:14:37;15.30;99.90
9901;DHT22;4989;48.772;9.154;2023-10-19T08:19:40;15.50;99.90
9901;DHT22;4989;48.772;9.154;2023-10-19T08:24:43;15.50;99.90
9901;DHT22;4989;48.772;9.154;2023-10-19T08:29:47;15.50;99.90
9901;DHT22;4989;48.772;9.154;2023-10-19T08:34:50;15.90;99.90
9901;DHT22;4989;48.772;9.154;2023-10-19T08:39:54;16.10;99.90
9901;DHT22;4989;48.772;9.154;2023-10-19T08:44:56;16.30;99.90
9901;DHT22;4989;48.772;9.154;2023-10-19T08:50:03;16.40;99.90
9901;DHT22;4989;48.772;9.154;2023-10-19T08:55:07;16.40;99.90
9901;DHT22;4989;48.772;9.154;2023-10-19T09:00:12;16.50;99.90
9901;DHT22;4989;48.772;9.154;2023-10-19T09:05:22;16.60;99.90
9901;DHT22;4989;48.772;9.154;2023-10-19T09:10:28;16.70;99.90
9901;DHT22;4989;48.772;9.154;2023-10-19T09:15:34;16.60;99.90
9901;DHT22;4989;48.772;9.154;2023-10-19T09:20:42;16.70;99.90
9901;DHT22;4989;48.772;9.154;2023-10-19T09:25:57;16.70;99.90
9901;DHT22;4989;48.772;9.154;2023-10-19T09:31:00;16.70;99.90
9901;DHT22;4989;48.772;9.154;2023-10-19T09:36:04;16.80;99.90
9901;DHT22;4989;48.772;9.154;2023-10-19T09:41:11;16.80;99.90
9901;DHT22;4989;48.772;9.154;2023-10-19T09:46:26;17.00;99.90
9901;DHT22;4989;48.772;9.154;2023-10-19T09:51:31;17.20;99.90
9901;DHT22;4989;48.772;9.154;2023-10-19T09:56:42;17.40;99.90
9901;DHT22;4989;48.772;9.154;2023-10-19T10:02:10;17.50;99.90
9901;DHT22;4989;48.772;9.154;2023-10-19T10:07:17;17.40;99.90
9901;DHT22;4989;48.772;9.154;2023-10-19T10:12:39;17.30;99.90
9901;DHT22;4989;48.772;9.154;2023-10-19T10:17:41;17.20;99.90
9901;DHT22;4989;48.772;9.154;2023-10-19T10:22:44;17.10;99.90
9901;DHT22;4989;48.772;9.154;2023-10-19T10:27:53;17.00;99.90
9901;DHT22;4989;48.772;9.154;2023-10-19T10:32:57;17.00;99.90
9901;DHT22;4989;48.772;9.154;2023-10-19T10:38:02;17.10;99.90
9901;DHT22;4989;48.772;9.154;2023-10-19T10:43:07;17.00;99.90
9901;DHT22;4989;48.772;9.154;2023-10-19T10:53:15;16.90;99.90
9901;DHT22;4989;48.772;9.154;2023-10-19T10:58:18;17.00;99.90
9901;DHT22;4989;48.772;9.154;2023-10-19T11:03:20;17.00;99.90
9901;DHT22;4989;48.772;9.154;2023-10-19T11:08:24;17.00;99.90
9901;DHT22;4989;48.772;9.154;2023-10-19T11:13:26;17.00;99.90
9901;DHT22;4989;48.772;9.154;2023-10-19T11:23:51;17.00;99.90
9901;DHT22;4989;48.772;9.154;2023-10-19T11:28:58;17.10;99.90
9901;DHT22;4989;48.772;9.154;2023-10-19T11:34:06;17.00;99.90
9901;DHT22;4989;48.772;9.154;2023-10-19T11:39:10;17.10;99.90
9901;DHT22;4989;48.772;9.154;2023-10-19T11:44:14;16.90;99.90
9901;DHT22;4989;48.772;9.154;2023-10-19T11:49:16;16.80;99.90
9901;DHT22;4989;48.772;9.154;2023-10-19T11:54:18;16.70;99.90
9901;DHT22;4989;48.772;9.154;2023-10-19T11:59:21;16.70;99.90
9901;DHT22;4989;48.772;9.154;2023-10-19T12:04:23;16.70;99.90
9901;DHT22;4989;48.772;9.154;2023-10-19T12:09:25;16.80;99.90
9901;DHT22;4989;48.772;9.154;2023-10-19T12:14:27;16.80;99.90
9901;DHT22;4989;48.772;9.154;2023-10-19T12:19:30;16.80;99.90
9901;DHT22;4989;48.772;9.154;2023-10-19T12:24:32;16.90;99.90
9901;DHT22;4989;48.772;9.154;2023-10-19T12:29:35;16.80;99.90
9901;DHT22;4989;48.772;9.154;2023-10-19T12:34:37;16.80;99.90
9901;DHT22;4989;48.772;9.154;2023-10-19T12:39:42;16.80;99.90
9901;DHT22;4989;48.772;9.154;2023-10-19T12:44:50;17.00;99.90
9901;DHT22;4989;48.772;9.154;2023-10-19T12:49:53;17.20;99.90
9901;DHT22;4989;48.772;9.154;2023-10-19T12:54:57;16.70;99.90
9901;DHT22;4989;48.772;9.154;2023-10-19T13:00:07;16.60;99.90
9901;DHT22;4989;48.772;9.154;2023-10-19T13:05:33;16.70;99.90
9901;DHT22;4989;48.772;9.154;2023-10-19T13:10:36;16.50;99.90
9901;DHT22;4989;48.772;9.154;2023-10-19T13:15:41;16.30;99.90
9901;DHT22;4989;48.772;9.154;2023-10-19T13:20:47;16.20;99.90
9901;DHT22;4989;48.772;9.154;2023-10-19T13:25:50;16.30;99.90
9901;DHT22;4989;48.772;9.154;2023-10-19T13:30:55;16.50;99.90
9901;DHT22;4989;48.772;9.154;2023-10-19T13:36:01;16.50;99.90
9901;DHT22;4989;48.772;9.154;2023-10-19T13:41:04;16.40;99.90
9901;DHT22;4989;48.772;9.154;2023-10-19T13:46:12;16.30;99.90
9901;DHT22;4989;48.772;9.154;2023-10-19T13:51:18;16.30;99.90
9901;DHT22;4989;48.772;9.154;2023-10-19T13:56:25;16.20;99.90
9901;DHT22;4989;48.772;9.154;2023-10-19T14:01:27;16.10;99.90
9901;DHT22;4989;48.772;9.154;2023-10-19T14:06:31;16.30;99.90
9901;DHT22;4989;48.772;9.154;2023-10-19T14:11:33;16.60;99.90
9901;DHT22;4989;48.772;9.154;2023-10-19T14:16:35;16.80;99.90
9901;DHT22;4989;48.772;9.154;2023-10-19T14:21:38;16.80;99.90
9901;DHT22;4989;48.772;9.154;2023-10-19T14:26:43;16.70;99.90
9901;DHT22;4989;48.772;9.154;2023-10-19T14:31:47;16.70;99.90
9901;DHT22;4989;48.772;9.154;2023-10-19T14:36:51;16.90;99.90
9901;DHT22;4989;48.772;9.154;2023-10-19T14:41:56;17.20;99.90
9901;DHT22;4989;48.772;9.154;2023-10-19T14:46:58;17.30;99.90
9901;DHT22;4989;48.772;9.154;2023-10-19T14:52:00;17.10;99.90
9901;DHT22;4989;48.772;9.154;2023-10-19T14:57:05;16.90;99.90
9901;DHT22;4989;48.772;9.154;2023-10-19T15:02:07;17.00;99.90
9901;DHT22;4989;48.772;9.154;2023-10-19T15:07:14;17.00;99.90
9901;DHT22;4989;48.772;9.154;2023-10-19T15:12:19;17.10;99.90
9901;DHT22;4989;48.772;9.154;2023-10-19T15:17:21;16.90;99.90
9901;DHT22;4989;48.772;9.154;2023-10-19T15:22:24;17.00;99.90
9901;DHT22;4989;48.772;9.154;2023-10-19T15:27:26;17.30;99.90
9901;DHT22;4989;48.772;9.154;2023-10-19T15:32:29;17.40;99.90
9901;DHT22;4989;48.772;9.154;2023-10-19T15:37:33;17.20;99.90
9901;DHT22;4989;48.772;9.154;2023-10-19T15:42:35;16.70;99.90
9901;DHT22;4989;48.772;9.154;2023-10-19T15:47:41;16.70;99.90
9901;DHT22;4989;48.772;9.154;2023-10-19T15:52:43;16.50;99.90
9901;DHT22;4989;48.772;9.154;2023-10-19T15:57:49;16.60;99.90
9901;DHT22;4989;48.772;9.154;2023-10-19T16:02:56;16.40;99.90
9901;DHT22;4989;48.772;9.154;2023-10-19T16:07:58;16.30;99.90
9901;DHT22;4989;48.772;9.154;2023-10-19T16:13:00;16.30;99.90
9901;DHT22;4989;48.772;9.154;2023-10-19T16:18:03;16.20;99.90
9901;DHT22;4989;48.772;9.154;2023-10-19T16:23:08;16.20;99.90
9901;DHT22;4989;48.772;9.154;2023-10-19T16:28:10;16.50;99.90
9901;DHT22;4989;48.772;9.154;2023-10-19T16:33:13;16.60;99.90
9901;DHT22;4989;48.772;9.154;2023-10-19T16:38:15;16.80;99.90
9901;DHT22;4989;48.772;9.154;2023-10-19T16:43:18;16.60;99.90
9901;DHT22;4989;48.772;9.154;2023-10-19T16:48:20;16.70;99.90
9901;DHT22;4989;48.772;9.154;2023-10-19T16:53:25;16.50;99.90
9901;DHT22;4989;48.772;9.154;2023-10-19T16:58:28;16.30;99.90
9901;DHT22;4989;48.772;9.154;2023-10-19T17:03:30;16.20;99.90
9901;DHT22;4989;48.772;9.154;2023-10-19T17:08:33;16.40;99.90
9901;DHT22;4989;48.772;9.154;2023-10-19T17:13:35;16.30;99.90
9901;DHT22;4989;48.772;9.154;2023-10-19T17:18:39;16.30;99.90
9901;DHT22;4989;48.772;9.154;2023-10-19T17:23:41;16.50;99.90
9901;DHT22;4989;48.772;9.154;2023-10-19T17:28:47;16.60;99.90
9901;DHT22;4989;48.772;9.154;2023-10-19T17:33:52;16.80;99.90
9901;DHT22;4989;48.772;9.154;2023-10-19T17:38:54;17.10;99.90
9901;DHT22;4989;48.772;9.154;2023-10-19T17:43:57;17.10;99.90
9901;DHT22;4989;48.772;9.154;2023-10-19T17:48:59;16.70;99.90
9901;DHT22;4989;48.772;9.154;2023-10-19T17:54:04;16.40;99.90
9901;DHT22;4989;48.772;9.154;2023-10-19T17:59:11;16.30;99.90
9901;DHT22;4989;48.772;9.154;2023-10-19T18:04:13;16.20;99.90
9901;DHT22;4989;48.772;9.154;2023-10-19T18:09:16;16.50;99.90
9901;DHT22;4989;48.772;9.154;2023-10-19T18:14:18;16.30;99.90
9901;DHT22;4989;48.772;9.154;2023-10-19T18:19:22;16.30;99.90
9901;DHT22;4989;48.772;9.154;2023-10-19T18:24:24;16.40;99.90
9901;DHT22;4989;48.772;9.154;2023-10-19T18:29:27;16.50;99.90
9901;DHT22;4989;48.772;9.154;2023-10-19T18:34:30;16.40;99.90
9901;DHT22;4989;48.772;9.154;2023-10-19T18:39:32;16.50;99.90
9901;DHT22;4989;48.772;9.154;2023-10-19T18:44:35;16.40;99.90
9901;DHT22;4989;48.772;9.154;2023-10-19T18:49:37;16.30;99.90
9901;DHT22;4989;48.772;9.154;2023-10-19T18:54:40;16.40;99.90
9901;DHT22;4989;48.772;9.154;2023-10-19T18:59:42;16.60;99.90
9901;DHT22;4989;48.772;9.154;2023-10-19T19:04:44;16.80;99.90
9901;DHT22;4989;48.772;9.154;2023-10-19T19:09:46;16.60;99.90
9901;DHT22;4989;48.772;9.154;2023-10-19T19:14:49;16.40;99.90
9901;DHT22;4989;48.772;9.154;2023-10-19T19:19:51;16.40;99.90
9901;DHT22;4989;48.772;9.154;2023-10-19T19:24:53;16.70;99.90
9901;DHT22;4989;48.772;9.154;2023-10-19T19:29:58;16.50;99.90
9901;DHT22;4989;48.772;9.154;2023-10-19T19:35:00;16.80;99.90
9901;DHT22;4989;48.772;9.154;2023-10-19T19:40:08;16.60;99.90
9901;DHT22;4989;48.772;9.154;2023-10-19T19:45:14;16.60;99.90
9901;DHT22;4989;48.772;9.154;2023-10-19T19:50:17;16.40;99.90
9901;DHT22;4989;48.772;9.154;2023-10-19T19:55:20;16.00;99.90
9901;DHT22;4989;48.772;9.154;2023-10-19T20:00:22;16.10;99.90
9901;DHT22;4989;48.772;9.154;2023-10-19T20:05:25;16.30;99.90
9901;DHT22;4989;48.772;9.154;2023-10-19T20:10:36;16.20;99.90
9901;DHT22;4989;48.772;9.154;2023-10-19T20:15:46;15.90;99.90
9901;DHT22;4989;48.772;9.154;2023-10-19T20:20:48;15.90;99.90
9901;DHT22;4989;48.772;9.154;2023-10-19T20:25:51;15.70;99.90
9901;DHT22;4989;48.772;9.154;2023-10-19T20:30:53;15.70;99.90
9901;DHT22;4989;48.772;9.154;2023-10-19T20:35:56;15.60;99.90
9901;DHT22;4989;48.772;9.154;2023-10-19T20:40:59;15.50;99.90
9901;DHT22;4989;48.772;9.154;2023-10-19T20:46:05;15.50;99.90
9901;DHT22;4989;48.772;9.154;2023-10-19T20:51:18;15.60;99.90
9901;DHT22;4989;48.772;9.154;2023-10-19T20:56:23;16.10;99.90
9901;DHT22;4989;48.772;9.154;2023-10-19T21:01:25;15.80;99.90
9901;DHT22;4989;48.772;9.154;2023-10-19T21:06:27;16.10;99.90
9901;DHT22;4989;48.772;9.154;2023-10-19T21:11:34;15.90;99.90
9901;DHT22;4989;48.772;9.154;2023-10-19T21:16:37;15.80;99.90
9901;DHT22;4989;48.772;9.154;2023-10-19T21:21:39;15.60;99.90
9901;DHT22;4989;48.772;9.154;2023-10-19T21:26:44;15.70;99.90
9901;DHT22;4989;48.772;9.154;2023-10-19T21:31:46;15.80;99.90
9901;DHT22;4989;48.772;9.154;2023-10-19T21:36:49;16.10;99.90
9901;DHT22;4989;48.772;9.154;2023-10-19T21:41:52;15.90;99.90
9901;DHT22;4989;48.772;9.154;2023-10-19T21:46:54;15.80;99.90
9901;DHT22;4989;48.772;9.154;2023-10-19T21:51:57;16.40;99.90
9901;DHT22;4989;48.772;9.154;2023-10-19T21:56:59;16.20;99.90
9901;DHT22;4989;48.772;9.154;2023-10-19T22:02:01;16.20;99.90
9901;DHT22;4989;48.772;9.154;2023-10-19T22:07:06;15.70;99.90
9901;DHT22;4989;48.772;9.154;2023-10-19T22:12:08;15.60;99.90
9901;DHT22;4989;48.772;9.154;2023-10-19T22:17:22;15.70;99.90
9901;DHT22;4989;48.772;9.154;2023-10-19T22:22:25;15.60;99.90
9901;DHT22;4989;48.772;9.154;2023-10-19T22:27:27;16.10;99.90
9901;DHT22;4989;48.772;9.154;2023-10-19T22:32:29;16.00;99.90
9901;DHT22;4989;48.772;9.154;2023-10-19T22:37:34;16.20;99.90
9901;DHT22;4989;48.772;9.154;2023-10-19T22:42:37;15.60;99.90
9901;DHT22;4989;48.772;9.154;2023-10-19T22:47:41;15.40;99.90
9901;DHT22;4989;48.772;9.154;2023-10-19T22:52:44;15.50;99.90
9901;DHT22;4989;48.772;9.154;2023-10-19T22:57:47;15.80;99.90
9901;DHT22;4989;48.772;9.154;2023-10-19T23:02:53;15.80;99.90
9901;DHT22;4989;48.772;9.154;2023-10-19T23:07:55;15.60;99.90
9901;DHT22;4989;48.772;9.154;2023-10-19T23:12:58;15.40;99.90
9901;DHT22;4989;48.772;9.154;2023-10-19T23:18:05;15.90;99.90
9901;DHT22;4989;48.772;9.154;2023-10-19T23:23:12;16.00;99.90
9901;DHT22;4989;48.772;9.154;2023-10-19T23:28:14;15.80;99.90
9901;DHT22;4989;48.772;9.154;2023-10-19T23:33:17;15.90;99.90
9901;DHT22;4989;48.772;9.154;2023-10-19T23:38:20;15.90;99.90
9901;DHT22;4989;48.772;9.154;2023-10-19T23:43:23;16.00;99.90
9901;DHT22;4989;48.772;9.154;2023-10-19T23:48:26;15.60;99.90
9901;DHT22;4989;48.772;9.154;2023-10-19T23:53:28;15.40;99.90
9901;DHT22;4989;48.772;9.154;2023-10-19T23:58:30;15.40;99.90
